createdAt,value
2022-12-13T00:18:38.151Z,1.37
2022-12-13T00:21:09.152Z,0.80
2022-12-13T00:23:35.943Z,1.47
2022-12-13T00:26:07.336Z,1.40
2022-12-13T00:28:34.242Z,0.90
2022-12-13T00:31:19.769Z,1.07
2022-12-13T00:33:49.219Z,1.30
2022-12-13T00:36:16.440Z,1.33
2022-12-13T00:38:43.057Z,1.37
2022-12-13T00:41:14.260Z,0.70
2022-12-13T00:43:40.952Z,1.00
2022-12-13T00:46:13.766Z,1.90
2022-12-13T00:48:40.410Z,1.80
2022-12-13T00:51:08.667Z,1.93
2022-12-13T00:53:36.155Z,2.37
2022-12-13T00:56:03.414Z,0.93
2022-12-13T00:58:30.022Z,1.10
2022-12-13T01:01:04.505Z,1.50
2022-12-13T01:03:31.521Z,1.30
2022-12-13T01:06:14.697Z,2.23
2022-12-13T01:08:42.417Z,1.03
2022-12-13T01:11:09.570Z,2.23
2022-12-13T01:13:36.605Z,1.40
2022-12-13T01:16:05.118Z,1.63
2022-12-13T01:18:31.847Z,1.27
2022-12-13T01:21:11.572Z,1.23
2022-12-13T01:23:38.126Z,1.83
2022-12-13T01:26:06.421Z,1.13
2022-12-13T01:28:33.149Z,1.30
2022-12-13T01:31:02.170Z,1.67
2022-12-13T01:33:29.382Z,1.57
2022-12-13T01:35:56.462Z,0.97
2022-12-13T01:38:26.293Z,1.23
2022-12-13T01:40:59.041Z,1.17
2022-12-13T01:43:49.897Z,1.50
2022-12-13T01:46:17.820Z,1.53
2022-12-13T01:48:53.101Z,1.30
2022-12-13T01:51:21.984Z,1.53
2022-12-13T01:53:49.197Z,1.80
2022-12-13T01:56:27.802Z,2.40
2022-12-13T01:58:55.015Z,1.30
2022-12-13T02:01:22.071Z,1.40
2022-12-13T02:03:48.723Z,1.83
2022-12-13T02:06:31.317Z,1.53
2022-12-13T02:08:58.340Z,1.30
2022-12-13T02:11:25.503Z,1.27
2022-12-13T02:13:52.127Z,1.67
2022-12-13T02:16:30.451Z,1.00
2022-12-13T02:19:15.880Z,1.50
2022-12-13T02:22:16.468Z,2.10
2022-12-13T02:24:52.937Z,1.20
2022-12-13T02:28:02.130Z,1.77
2022-12-13T02:30:37.597Z,1.43
2022-12-13T02:33:25.366Z,1.77
2022-12-13T02:35:53.738Z,1.17
2022-12-13T02:38:26.266Z,1.70
2022-12-13T02:41:23.475Z,1.80
2022-12-13T02:44:04.234Z,1.83
2022-12-13T02:46:52.727Z,1.63
2022-12-13T02:49:20.856Z,1.90
2022-12-13T02:51:48.199Z,1.30
2022-12-13T02:54:14.764Z,1.57
2022-12-13T02:56:41.694Z,2.00
2022-12-13T02:59:12.277Z,1.40
2022-12-13T03:01:52.667Z,1.83
2022-12-13T03:05:26.436Z,1.67
2022-12-13T03:07:55.871Z,2.47
2022-12-13T03:10:29.432Z,1.93
2022-12-13T03:13:23.204Z,1.73
2022-12-13T03:15:58.670Z,0.83
2022-12-13T03:18:27.905Z,1.40
2022-12-13T03:20:58.843Z,2.00
2022-12-13T03:23:26.380Z,1.33
2022-12-13T03:26:00.141Z,1.23
2022-12-13T03:28:26.759Z,1.20
2022-12-13T03:30:53.415Z,1.40
2022-12-13T03:33:20.029Z,1.57
2022-12-13T03:35:46.811Z,1.30
2022-12-13T03:38:22.213Z,1.67
2022-12-13T03:40:50.722Z,1.50
2022-12-13T03:43:22.487Z,1.60
2022-12-13T03:45:50.338Z,1.90
2022-12-13T03:48:22.458Z,1.23
2022-12-13T03:50:50.680Z,1.07
2022-12-13T03:53:22.697Z,1.63
2022-12-13T03:56:00.705Z,1.40
2022-12-13T03:58:35.905Z,1.10
2022-12-13T04:01:15.103Z,0.83
2022-12-13T04:03:43.018Z,0.80
2022-12-13T04:06:10.139Z,1.57
2022-12-13T04:08:37.555Z,1.30
2022-12-13T04:11:23.126Z,1.37
2022-12-13T04:13:49.833Z,1.93
2022-12-13T04:16:16.616Z,1.33
2022-12-13T04:18:43.469Z,1.33
2022-12-13T04:21:10.113Z,2.40
2022-12-13T04:23:36.668Z,1.60
2022-12-13T04:26:03.302Z,1.93
2022-12-13T04:28:29.887Z,1.40
2022-12-13T04:30:56.487Z,2.20
2022-12-13T04:33:23.432Z,1.27
2022-12-13T04:35:50.569Z,1.83
2022-12-13T04:38:17.574Z,1.80
2022-12-13T04:40:44.156Z,1.17
2022-12-13T04:43:10.786Z,1.30
2022-12-13T04:45:37.484Z,2.10
2022-12-13T04:48:04.477Z,1.83
2022-12-13T04:50:31.059Z,1.17
2022-12-13T04:52:57.623Z,1.87
2022-12-13T04:55:24.213Z,1.30
2022-12-13T04:57:50.782Z,1.77
2022-12-13T05:00:17.461Z,1.53
2022-12-13T05:02:44.079Z,2.13
2022-12-13T05:05:11.837Z,1.40
2022-12-13T05:07:42.724Z,3.70
2022-12-13T05:10:11.173Z,1.40
2022-12-13T05:12:37.982Z,2.47
2022-12-13T05:15:06.157Z,1.70
2022-12-13T05:17:34.454Z,2.67
2022-12-13T05:20:01.086Z,2.33
2022-12-13T05:22:27.703Z,2.10
2022-12-13T05:24:54.366Z,3.77
2022-12-13T05:27:23.996Z,2.50
2022-12-13T05:29:54.827Z,2.13
2022-12-13T05:32:42.706Z,5.03
2022-12-13T05:35:22.153Z,2.73
2022-12-13T05:37:54.021Z,4.50
2022-12-13T05:40:21.813Z,5.13
2022-12-13T05:42:48.387Z,3.17
2022-12-13T05:45:16.620Z,2.87
2022-12-13T05:47:43.567Z,2.53
2022-12-13T05:50:10.779Z,1.73
2022-12-13T05:52:37.689Z,5.03
2022-12-13T05:55:04.697Z,1.73
2022-12-13T05:57:32.108Z,5.80
2022-12-13T06:00:00.874Z,3.27
2022-12-13T06:02:27.801Z,3.90
2022-12-13T06:04:54.499Z,2.00
2022-12-13T06:07:21.161Z,3.60
2022-12-13T06:09:47.727Z,2.50
2022-12-13T06:12:32.009Z,3.20
2022-12-13T06:15:01.019Z,2.80
2022-12-13T06:17:45.975Z,1.27
2022-12-13T06:20:24.329Z,2.43
2022-12-13T06:22:53.931Z,1.87
2022-12-13T06:25:31.218Z,2.80
2022-12-13T06:28:00.720Z,1.87
2022-12-13T06:30:28.801Z,3.23
2022-12-13T06:32:55.392Z,2.93
2022-12-13T06:35:28.704Z,2.47
2022-12-13T06:38:01.583Z,2.30
2022-12-13T06:40:33.773Z,2.60
2022-12-13T06:43:00.927Z,8.83
2022-12-13T06:45:27.605Z,3.33
2022-12-13T06:47:54.199Z,2.77
2022-12-13T06:50:20.822Z,2.70
2022-12-13T06:52:47.455Z,2.97
2022-12-13T06:55:14.601Z,2.20
2022-12-13T06:57:41.913Z,2.27
2022-12-13T07:00:09.843Z,3.27
2022-12-13T07:02:38.328Z,3.57
2022-12-13T07:05:05.677Z,2.67
2022-12-13T07:07:32.437Z,2.67
2022-12-13T07:09:59.061Z,2.43
2022-12-13T07:12:25.741Z,1.67
2022-12-13T07:14:52.323Z,2.73
2022-12-13T07:17:33.338Z,4.30
2022-12-13T07:20:08.135Z,4.27
2022-12-13T07:22:39.900Z,3.07
2022-12-13T07:25:28.637Z,2.40
2022-12-13T07:28:01.133Z,2.47
2022-12-13T07:30:30.021Z,3.13
2022-12-13T07:32:56.617Z,4.13
2022-12-13T07:35:23.186Z,4.07
2022-12-13T07:37:49.799Z,2.13
2022-12-13T07:40:16.571Z,3.83
2022-12-13T07:42:52.010Z,3.93
2022-12-13T07:45:18.836Z,3.23
2022-12-13T07:47:45.440Z,2.60
2022-12-13T07:50:24.205Z,3.80
2022-12-13T07:52:52.722Z,3.33
2022-12-13T07:55:32.876Z,10.57
2022-12-13T07:58:18.556Z,2.70
2022-12-13T08:00:46.854Z,4.87
2022-12-13T08:03:25.630Z,2.10
2022-12-13T08:06:20.007Z,3.47
2022-12-13T08:08:46.904Z,3.30
2022-12-13T08:11:15.783Z,3.93
2022-12-13T08:13:42.434Z,3.33
2022-12-13T08:16:27.944Z,2.30
2022-12-13T08:19:03.162Z,2.70
2022-12-13T08:21:58.832Z,2.30
2022-12-13T08:24:30.118Z,2.65
2022-12-13T08:27:02.046Z,2.53
2022-12-13T08:29:34.604Z,2.17
2022-12-13T08:32:10.168Z,2.90
2022-12-13T08:34:36.979Z,3.93
2022-12-13T08:37:04.538Z,3.10
2022-12-13T20:24:12.291Z,5.33
2022-12-13T20:26:39.111Z,8.80
2022-12-13T20:29:05.675Z,8.97
2022-12-13T20:31:34.773Z,6.53
2022-12-13T20:34:04.008Z,7.40
2022-12-13T20:36:31.557Z,6.63
2022-12-13T20:38:59.990Z,17.07
2022-12-13T20:41:29.077Z,11.10
2022-12-13T20:43:58.180Z,9.27
2022-12-13T20:46:25.823Z,7.60
2022-12-13T20:48:53.103Z,7.67
2022-12-13T20:51:21.983Z,8.67
2022-12-13T20:53:49.714Z,8.53
2022-12-13T20:56:19.338Z,7.53
2022-12-13T20:58:46.191Z,7.13
2022-12-13T21:01:20.258Z,7.33
2022-12-13T21:03:47.022Z,5.63
2022-12-13T21:06:13.726Z,6.93
2022-12-13T21:08:52.423Z,7.50
2022-12-13T21:11:27.183Z,9.50
2022-12-13T21:14:06.957Z,11.23
2022-12-13T21:16:40.286Z,13.87
2022-12-13T21:19:08.557Z,12.27
2022-12-13T21:21:35.402Z,7.53
2022-12-13T21:24:03.248Z,7.03
2022-12-13T21:26:35.257Z,7.17
2022-12-13T21:29:05.095Z,8.20
2022-12-13T21:31:31.885Z,9.73
2022-12-13T21:34:00.281Z,7.57
2022-12-13T21:36:31.993Z,8.67
2022-12-13T21:39:00.934Z,8.83
2022-12-13T21:41:28.172Z,8.97
2022-12-13T21:43:55.222Z,11.43
2022-12-13T21:46:26.010Z,8.20
2022-12-13T21:48:57.578Z,7.43
2022-12-13T21:51:26.217Z,8.67
2022-12-13T21:53:53.480Z,9.70
2022-12-13T21:56:40.569Z,7.27
2022-12-13T21:59:17.071Z,8.23
2022-12-13T22:02:20.421Z,10.90
2022-12-13T22:04:58.607Z,7.73
2022-12-13T22:07:31.437Z,8.03
2022-12-13T22:09:59.804Z,5.17
2022-12-13T22:12:30.306Z,7.30
2022-12-13T22:14:56.943Z,5.57
2022-12-13T22:17:29.661Z,2.73
2022-12-13T22:19:59.582Z,3.47
2022-12-13T22:22:26.593Z,4.30
2022-12-13T22:24:53.980Z,4.23
2022-12-13T22:27:23.687Z,3.77
2022-12-13T22:29:57.053Z,4.17
2022-12-13T22:32:25.881Z,3.63
2022-12-13T22:34:52.564Z,4.30
2022-12-13T22:37:19.348Z,3.77
2022-12-13T22:39:46.120Z,3.00
2022-12-13T22:42:12.790Z,2.80
2022-12-13T22:44:39.401Z,3.40
2022-12-13T22:47:06.741Z,3.93
2022-12-13T22:49:33.382Z,3.77
2022-12-13T22:51:59.922Z,4.10
2022-12-13T22:54:26.517Z,4.53
2022-12-13T22:56:53.580Z,4.83
2022-12-13T22:59:20.147Z,4.50
2022-12-13T23:01:47.439Z,4.47
2022-12-13T23:04:14.696Z,5.60
2022-12-13T23:06:41.491Z,3.67
2022-12-13T23:09:11.472Z,4.83
2022-12-13T23:11:56.587Z,3.87
2022-12-13T23:14:30.701Z,5.50
2022-12-13T23:16:57.957Z,7.07
2022-12-13T23:19:48.818Z,4.97
2022-12-13T23:22:11.362Z,5.37
2022-12-13T23:24:37.927Z,4.27
2022-12-13T23:27:04.576Z,5.47
2022-12-13T23:29:31.557Z,5.70
2022-12-13T23:31:58.118Z,4.40
2022-12-13T23:34:24.703Z,5.17
2022-12-13T23:36:51.318Z,6.60
2022-12-13T23:39:17.895Z,4.93
2022-12-13T23:41:44.460Z,6.30
2022-12-13T23:44:11.087Z,4.33
2022-12-13T23:46:38.000Z,6.23
2022-12-13T23:49:05.848Z,5.13
2022-12-13T23:51:33.468Z,6.13
2022-12-13T23:54:00.263Z,5.23
2022-12-13T23:56:27.133Z,4.83
2022-12-13T23:58:53.811Z,4.90
